createdAt,value
2018-02-11T00:00:12.323Z,0.8
2018-02-11T00:01:16.034Z,1.6
2018-02-11T00:02:19.558Z,0.7
2018-02-11T00:03:23.884Z,0.8
2018-02-11T00:04:31.546Z,0.8
2018-02-11T00:05:37.939Z,0.8
2018-02-11T00:06:42.669Z,0.8
2018-02-11T00:07:47.308Z,0.8
2018-02-11T00:08:50.659Z,0.7
2018-02-11T01:18:49.816Z,0.9
2018-02-11T01:25:04.147Z,1
2018-02-11T01:34:30.140Z,0.8
2018-02-11T01:35:33.685Z,0.7
2018-02-11T02:00:18.378Z,0.7
2018-02-11T02:01:21.970Z,0.7
2018-02-11T02:04:32.095Z,0.6
2018-02-11T02:09:44.218Z,0.7
2018-02-11T02:10:51.862Z,0.6
2018-02-11T02:11:55.253Z,0.6
2018-02-11T02:17:10.234Z,0.7
2018-02-11T02:18:13.460Z,0.6
2018-02-11T02:43:17.174Z,0.6
2018-02-11T03:46:40.576Z,0.5
2018-02-11T03:47:43.850Z,0.4
2018-02-11T03:48:47.624Z,0.4
2018-02-11T03:49:51.011Z,0.4
2018-02-11T03:50:54.724Z,0.3
2018-02-11T03:51:59.372Z,0.3
2018-02-11T03:53:02.794Z,0.3
2018-02-11T03:54:06.254Z,0.3
2018-02-11T03:55:09.903Z,0.3
2018-02-11T03:56:17.919Z,0.3
2018-02-11T03:57:22.134Z,0.3
2018-02-11T03:58:25.583Z,0.2
2018-02-11T03:59:29.560Z,0.2
2018-02-11T04:00:32.969Z,0.2
2018-02-11T04:01:37.386Z,0.2
2018-02-11T04:02:40.658Z,0.2
2018-02-11T04:03:46.213Z,0.2
2018-02-11T04:04:49.864Z,0.2
2018-02-11T04:05:53.844Z,0.3
2018-02-11T06:15:35.749Z,-0.9
2018-02-11T06:16:39.180Z,-1
2018-02-11T06:17:43.546Z,-1.1
2018-02-11T06:18:47.912Z,-1
2018-02-11T06:34:29.225Z,-1.2
2018-02-11T06:35:33.331Z,-1.2
2018-02-11T06:36:37.396Z,-1.3
2018-02-11T06:47:06.935Z,-1.1
2018-02-11T06:48:10.352Z,-1.1
2018-02-11T06:49:13.692Z,-1.2
2018-02-11T06:50:16.908Z,-1.3
2018-02-11T06:51:20.853Z,-1.3
2018-02-11T06:52:24.260Z,-1.3
2018-02-11T06:53:27.937Z,-1.3
2018-02-11T06:54:31.203Z,-1.3
2018-02-11T06:55:38.286Z,-1.3
2018-02-11T06:56:41.756Z,-1.3
2018-02-11T06:57:46.147Z,-1.3
2018-02-11T06:58:50.359Z,-1.2
2018-02-11T06:59:53.678Z,-1.2
2018-02-11T07:01:59.649Z,-1.1
2018-02-11T07:03:03.120Z,-1.1
2018-02-11T07:04:06.600Z,-1.1
2018-02-11T07:07:20.348Z,-1.1
2018-02-11T07:14:36.044Z,-0.8
2018-02-11T07:18:20.980Z,-0.6
2018-02-11T07:19:24.255Z,-0.5
2018-02-11T07:20:28.250Z,-0.5
2018-02-11T07:22:34.290Z,-0.6
2018-02-11T07:25:43.430Z,-0.4
2018-02-11T07:28:56.107Z,-0.4
2018-02-11T07:35:12.029Z,0.1
2018-02-11T07:36:15.574Z,0.2
2018-02-11T07:41:32.063Z,0.5
2018-02-11T07:48:52.266Z,0.8
2018-02-11T07:49:55.889Z,0.9
2018-02-11T07:50:59.359Z,1
2018-02-11T08:03:30.481Z,1.4
2018-02-11T08:06:37.955Z,1.1
2018-02-11T08:12:55.144Z,0.9
2018-02-11T08:30:45.289Z,0.5
2018-02-11T08:31:50.296Z,0.4
2018-02-11T08:32:53.743Z,0.5
2018-02-11T08:33:58.328Z,0.4
2018-02-11T08:35:01.875Z,0.3
2018-02-11T08:36:06.403Z,0.4
2018-02-11T08:40:15.953Z,0.8
2018-02-11T08:41:22.935Z,0.9
2018-02-11T08:42:26.420Z,0.8
2018-02-11T08:43:30.492Z,0.8
2018-02-11T08:44:35.540Z,0.9
2018-02-11T08:45:39.115Z,0.8
2018-02-11T08:46:42.462Z,0.8
2018-02-11T08:47:46.318Z,0.7
2018-02-11T08:48:49.937Z,0.6
2018-02-11T08:49:54.250Z,0.6
2018-02-11T09:00:20.840Z,0.9
2018-02-11T09:46:24.608Z,2
2018-02-11T09:47:28.736Z,2
2018-02-11T09:48:32.633Z,2.1
2018-02-11T09:49:36.297Z,2.1
2018-02-11T09:52:44.801Z,2
2018-02-11T09:53:49.257Z,1.9
2018-02-11T09:54:53.317Z,1.9
2018-02-11T09:56:01.829Z,2
2018-02-11T10:06:35.919Z,2.8
2018-02-11T10:07:42.518Z,2.9
2018-02-11T10:08:47.455Z,2.9
2018-02-11T10:38:18.224Z,3.2
2018-02-11T10:39:21.670Z,3.1
